Friday, November 24, 2017, 1:10 PM GMT
Back to Local

CXMI, McNabs Island , N. S.

Location: , , Canada Lat: 44.6
Local Time: 1:10 PM GMT (13:10 GMT) Lon: -63.533
Time Zone: GMT Elev: 49 ft

Show me the last for .
Show Coded

Time T Td Feel RH Dir Speed Gust Alt SLP Vis Weather Sky Remarks
2017-11-24 12:00 33 29 26 82 260° 9 - - - 0 None
2017-11-24 11:00 33 28 24 82 270° 12 - - - 0 None
2017-11-24 10:00 32 29 26 89 280° 6 - - - 0 None
2017-11-24 09:00 33 29 27 86 270° 7 - - - 0 None
2017-11-24 08:00 33 30 27 85 260° 8 - - - 0 None
2017-11-24 07:00 34 30 28 87 270° 7 - - - 0 None
2017-11-24 06:00 33 30 28 89 280° 6 - - - 0 None
2017-11-24 05:00 32 29 27 88 280° 5 - - - 0 None
2017-11-24 04:00 32 29 26 87 280° 6 - - - 0 None
2017-11-24 03:00 32 29 26 88 280° 6 - - - 0 None
2017-11-24 02:00 33 29 27 84 270° 6 - - - 0 None
2017-11-24 01:00 31 28 26 88 270° 6 - - - 0 None
2017-11-24 00:00 34 28 23 79 290° 9 17 - - 0 Peak wind: 20 mph (18 kts) from 310° at 09 min
2017-11-23 23:00 33 28 26 82 300° 8 - - - 0 None
2017-11-23 22:00 36 29 31 75 280° 6 - - - 0 None
2017-11-23 21:00 38 30 32 70 290° 9 - - - 0 None
2017-11-23 20:00 41 29 36 62 280° 8 - - - 0 None
2017-11-23 19:00 43 32 39 63 290° 7 - - - 0 None
2017-11-23 18:00 43 32 34 63 300° 10 21 - - 0 Peak wind: 21 mph (19 kts) from 290° at 37 min
2017-11-23 17:00 44 35 36 67 290° 10 20 - - 0 Peak wind: 24 mph (21 kts) from 300° at 10 min
2017-11-23 16:00 43 35 34 71 290° 12 21 - - 0 Peak wind: 23 mph (20 kts) from 300° at 33 min
2017-11-23 15:00 41 35 32 78 290° 12 20 - - 0 Peak wind: 26 mph (23 kts) from 300° at 21 min
2017-11-23 14:00 40 35 29 80 290° 16 26 - - 0 Peak wind: 28 mph (25 kts) from 300° at 35 min

Support USWX by starting your Amazon purchase here.